Iles-de-la-Madeleine, Canada
Current Conditions -  °F | °C
As of 10:00 PM on Thursday 18 Dec 2014 (Local Time) from CYGR Reporting Station
Scattered Clouds Scattered Clouds  
Wind Chill:   Ceiling: Unl
Heat Index:   Visibility: 15mi
Dew Point:   Wind: 6mph
Humidity: 93%   Direction: 130°SE
Pressure: 29.42"   Gusts: NA
Location:  47.42°N, 61.77°W
Report Text: CYGR 190200Z 13005KT 15SM FEW012 SCT020 03/02 A2942 RMK SC1SC3 SLP963
Loading
Personal Weather Stations






























Interactive Weather Map New forecast layout! Learn more

10-Day Weather Forecast

Advertisements
Track Severe Weather on mobile